CHD weather

Chandler Municipal Airport
Chandler, Arizona, United States

Public forecast

Using degrees Fahrenheit for public forecast. Weather courtesy of forecast.io.

Current aviation weather report (METAR) for Chandler Municipal Airport

Retrieved 2020/01/21 21:47 UTC (45 minutes ago):

KCHD 212147Z 25005KT 07SM BKN030 OVC050 13/10 A3007

Closest aviation forecast (TAF) to Chandler Municipal Airport

Closest forecast is Phoenix-Mesa-Gateway Airport, 8.2 nm (15.1 km) ENE. Retrieved 2020/01/21 20:18 UTC (2 hours ago):

TAF COR KIWA 212015Z 2120/2218 VRB04KT P6SM VCSH SCT035 BKN045 OVC070 TEMPO 2120/2124 24005KT 5SM -SHRA SCT015 BKN030 FM220400 VRB04KT P6SM FEW010 SCT030 BKN060 FM221000 13005KT 4SM HZ SCT010